sensor_id;sensor_type;location;lat;lon;timestamp;temperature;humidity
65040;HTU21D;51606;45.000;38.612;2022-07-29T03:37:25;24.13;60.82
65040;HTU21D;51606;45.000;38.612;2022-07-29T03:39:52;24.43;60.45
65040;HTU21D;51606;45.000;38.612;2022-07-29T03:42:23;24.59;60.47
65040;HTU21D;51606;45.000;38.612;2022-07-29T03:44:51;24.77;60.69
65040;HTU21D;51606;45.000;38.612;2022-07-29T03:47:22;25.52;60.09
65040;HTU21D;51606;45.000;38.612;2022-07-29T03:49:50;26.51;58.96
65040;HTU21D;51606;45.000;38.612;2022-07-29T03:52:18;27.12;58.41
65040;HTU21D;51606;45.000;38.612;2022-07-29T04:16:14;34.40;52.87
65040;HTU21D;51606;45.000;38.612;2022-07-29T04:18:40;34.99;52.47
65040;HTU21D;51606;45.000;38.612;2022-07-29T04:21:06;35.57;52.06
65040;HTU21D;51606;45.000;38.612;2022-07-29T04:23:32;36.07;51.72
65040;HTU21D;51606;45.000;38.612;2022-07-29T04:25:59;36.56;51.37
65040;HTU21D;51606;45.000;38.612;2022-07-29T04:28:26;36.85;51.32
65040;HTU21D;51606;45.000;38.612;2022-07-29T04:30:52;37.18;51.18
65040;HTU21D;51606;45.000;38.612;2022-07-29T04:33:19;37.64;50.76
65040;HTU21D;51606;45.000;38.612;2022-07-29T04:35:45;38.07;50.39
65040;HTU21D;51606;45.000;38.612;2022-07-29T04:38:11;38.46;50.08
65040;HTU21D;51606;45.000;38.612;2022-07-29T04:40:37;38.61;49.99
65040;HTU21D;51606;45.000;38.612;2022-07-29T04:43:04;38.83;49.88
65040;HTU21D;51606;45.000;38.612;2022-07-29T04:45:30;39.10;49.65
65040;HTU21D;51606;45.000;38.612;2022-07-29T04:47:56;39.37;49.40
65040;HTU21D;51606;45.000;38.612;2022-07-29T04:50:23;39.70;49.03
65040;HTU21D;51606;45.000;38.612;2022-07-29T04:52:49;39.82;49.00
65040;HTU21D;51606;45.000;38.612;2022-07-29T04:55:16;40.01;48.82
65040;HTU21D;51606;45.000;38.612;2022-07-29T04:57:42;40.19;48.66
65040;HTU21D;51606;45.000;38.612;2022-07-29T05:00:09;40.48;48.34
65040;HTU21D;51606;45.000;38.612;2022-07-29T05:02:36;40.97;47.66
65040;HTU21D;51606;45.000;38.612;2022-07-29T05:05:02;41.25;47.35
65040;HTU21D;51606;45.000;38.612;2022-07-29T05:07:29;41.50;47.14
65040;HTU21D;51606;45.000;38.612;2022-07-29T05:09:55;41.81;46.76
65040;HTU21D;51606;45.000;38.612;2022-07-29T05:12:24;42.04;46.48
65040;HTU21D;51606;45.000;38.612;2022-07-29T05:14:50;42.23;46.18
65040;HTU21D;51606;45.000;38.612;2022-07-29T05:17:17;41.89;46.67
65040;HTU21D;51606;45.000;38.612;2022-07-29T05:19:43;41.92;46.60
65040;HTU21D;51606;45.000;38.612;2022-07-29T05:22:10;42.21;46.12
65040;HTU21D;51606;45.000;38.612;2022-07-29T05:24:36;42.40;45.77
65040;HTU21D;51606;45.000;38.612;2022-07-29T05:27:03;42.64;45.44
65040;HTU21D;51606;45.000;38.612;2022-07-29T05:29:33;43.07;44.79
65040;HTU21D;51606;45.000;38.612;2022-07-29T05:31:59;43.38;44.34
65040;HTU21D;51606;45.000;38.612;2022-07-29T05:34:25;43.59;44.10
65040;HTU21D;51606;45.000;38.612;2022-07-29T05:36:52;43.68;43.98
65040;HTU21D;51606;45.000;38.612;2022-07-29T05:39:19;43.64;43.94
65040;HTU21D;51606;45.000;38.612;2022-07-29T05:41:45;43.49;44.12
65040;HTU21D;51606;45.000;38.612;2022-07-29T05:44:12;43.38;44.19
65040;HTU21D;51606;45.000;38.612;2022-07-29T05:46:39;43.14;44.40
65040;HTU21D;51606;45.000;38.612;2022-07-29T05:49:05;43.22;44.09
65040;HTU21D;51606;45.000;38.612;2022-07-29T05:51:34;43.36;43.72
65040;HTU21D;51606;45.000;38.612;2022-07-29T05:54:00;43.66;43.19
65040;HTU21D;51606;45.000;38.612;2022-07-29T05:56:27;43.82;42.80
65040;HTU21D;51606;45.000;38.612;2022-07-29T05:58:54;43.78;42.77
65040;HTU21D;51606;45.000;38.612;2022-07-29T06:01:20;43.64;42.81
65040;HTU21D;51606;45.000;38.612;2022-07-29T06:03:47;43.61;42.68
65040;HTU21D;51606;45.000;38.612;2022-07-29T06:06:13;43.00;43.28
65040;HTU21D;51606;45.000;38.612;2022-07-29T06:08:39;42.73;43.48
65040;HTU21D;51606;45.000;38.612;2022-07-29T06:11:24;42.16;43.90
65040;HTU21D;51606;45.000;38.612;2022-07-29T06:13:50;41.77;44.08
65040;HTU21D;51606;45.000;38.612;2022-07-29T06:16:17;41.79;43.67
65040;HTU21D;51606;45.000;38.612;2022-07-29T06:18:43;41.92;43.10
65040;HTU21D;51606;45.000;38.612;2022-07-29T06:42:45;42.17;41.58
65040;HTU21D;51606;45.000;38.612;2022-07-29T06:45:12;42.08;41.68
65040;HTU21D;51606;45.000;38.612;2022-07-29T06:47:38;41.65;42.33
65040;HTU21D;51606;45.000;38.612;2022-07-29T06:50:05;41.35;42.68
65040;HTU21D;51606;45.000;38.612;2022-07-29T06:52:31;40.90;43.20
65040;HTU21D;51606;45.000;38.612;2022-07-29T06:54:58;40.80;43.32
65040;HTU21D;51606;45.000;38.612;2022-07-29T06:57:25;40.84;43.06
65040;HTU21D;51606;45.000;38.612;2022-07-29T06:59:52;40.84;43.06
65040;HTU21D;51606;45.000;38.612;2022-07-29T07:02:18;40.81;42.96
65040;HTU21D;51606;45.000;38.612;2022-07-29T07:04:44;40.14;43.96
65040;HTU21D;51606;45.000;38.612;2022-07-29T07:07:11;39.82;44.38
65040;HTU21D;51606;45.000;38.612;2022-07-29T07:09:37;39.72;44.43
65040;HTU21D;51606;45.000;38.612;2022-07-29T07:12:04;39.82;44.16
65040;HTU21D;51606;45.000;38.612;2022-07-29T07:14:30;39.61;44.35
65040;HTU21D;51606;45.000;38.612;2022-07-29T07:16:57;39.21;44.87
65040;HTU21D;51606;45.000;38.612;2022-07-29T07:19:23;38.82;45.36
65040;HTU21D;51606;45.000;38.612;2022-07-29T07:21:59;38.38;45.89
65040;HTU21D;51606;45.000;38.612;2022-07-29T07:24:25;38.09;46.25
65040;HTU21D;51606;45.000;38.612;2022-07-29T07:26:51;38.17;45.99
65040;HTU21D;51606;45.000;38.612;2022-07-29T07:29:18;38.31;45.54
65040;HTU21D;51606;45.000;38.612;2022-07-29T07:31:44;37.79;46.22
65040;HTU21D;51606;45.000;38.612;2022-07-29T07:34:11;37.62;46.45
65040;HTU21D;51606;45.000;38.612;2022-07-29T07:36:37;37.77;46.18
65040;HTU21D;51606;45.000;38.612;2022-07-29T07:39:04;38.21;45.40
65040;HTU21D;51606;45.000;38.612;2022-07-29T07:41:31;38.29;45.28
65040;HTU21D;51606;45.000;38.612;2022-07-29T07:43:57;38.32;45.22
65040;HTU21D;51606;45.000;38.612;2022-07-29T07:46:24;38.08;45.59
65040;HTU21D;51606;45.000;38.612;2022-07-29T07:48:51;37.91;45.86
65040;HTU21D;51606;45.000;38.612;2022-07-29T07:51:18;37.67;46.13
65040;HTU21D;51606;45.000;38.612;2022-07-29T07:53:44;37.77;46.02
65040;HTU21D;51606;45.000;38.612;2022-07-29T07:56:11;37.75;45.93
65040;HTU21D;51606;45.000;38.612;2022-07-29T07:58:37;37.54;46.27
65040;HTU21D;51606;45.000;38.612;2022-07-29T08:14:33;37.93;45.54
65040;HTU21D;51606;45.000;38.612;2022-07-29T08:17:00;38.08;45.31
65040;HTU21D;51606;45.000;38.612;2022-07-29T08:19:26;37.94;45.45
65040;HTU21D;51606;45.000;38.612;2022-07-29T08:21:53;37.93;45.45
65040;HTU21D;51606;45.000;38.612;2022-07-29T08:24:21;37.97;45.32
65040;HTU21D;51606;45.000;38.612;2022-07-29T08:27:05;37.63;45.73
65040;HTU21D;51606;45.000;38.612;2022-07-29T08:29:32;37.75;45.46
65040;HTU21D;51606;45.000;38.612;2022-07-29T08:31:58;37.59;45.51
65040;HTU21D;51606;45.000;38.612;2022-07-29T08:34:24;37.58;45.41
65040;HTU21D;51606;45.000;38.612;2022-07-29T08:36:51;37.48;45.38
65040;HTU21D;51606;45.000;38.612;2022-07-29T08:39:18;37.51;45.28
65040;HTU21D;51606;45.000;38.612;2022-07-29T08:41:49;37.74;44.78
65040;HTU21D;51606;45.000;38.612;2022-07-29T08:44:18;37.91;44.42
65040;HTU21D;51606;45.000;38.612;2022-07-29T08:46:45;37.78;44.47
65040;HTU21D;51606;45.000;38.612;2022-07-29T08:49:11;37.27;45.16
65040;HTU21D;51606;45.000;38.612;2022-07-29T08:51:40;36.95;45.52
65040;HTU21D;51606;45.000;38.612;2022-07-29T08:54:08;36.90;45.47
65040;HTU21D;51606;45.000;38.612;2022-07-29T08:56:35;36.95;45.25
65040;HTU21D;51606;45.000;38.612;2022-07-29T08:59:05;37.10;44.92
65040;HTU21D;51606;45.000;38.612;2022-07-29T09:01:35;36.86;45.06
65040;HTU21D;51606;45.000;38.612;2022-07-29T09:04:11;36.42;45.65
65040;HTU21D;51606;45.000;38.612;2022-07-29T09:06:42;36.33;45.67
65040;HTU21D;51606;45.000;38.612;2022-07-29T09:09:09;36.27;45.72
65040;HTU21D;51606;45.000;38.612;2022-07-29T09:11:35;36.24;45.60
65040;HTU21D;51606;45.000;38.612;2022-07-29T09:14:02;36.11;45.75
65040;HTU21D;51606;45.000;38.612;2022-07-29T09:16:48;36.29;45.36
65040;HTU21D;51606;45.000;38.612;2022-07-29T09:21:52;36.36;45.21
65040;HTU21D;51606;45.000;38.612;2022-07-29T09:24:40;36.37;45.17
65040;HTU21D;51606;45.000;38.612;2022-07-29T09:29:38;36.15;45.38
65040;HTU21D;51606;45.000;38.612;2022-07-29T09:32:09;35.85;45.70
65040;HTU21D;51606;45.000;38.612;2022-07-29T09:34:36;35.59;45.99
65040;HTU21D;51606;45.000;38.612;2022-07-29T09:37:03;35.48;46.05
65040;HTU21D;51606;45.000;38.612;2022-07-29T09:39:39;35.30;46.15
65040;HTU21D;51606;45.000;38.612;2022-07-29T09:42:11;35.22;46.22
65040;HTU21D;51606;45.000;38.612;2022-07-29T09:44:46;35.37;45.87
65040;HTU21D;51606;45.000;38.612;2022-07-29T09:47:15;35.40;45.77
65040;HTU21D;51606;45.000;38.612;2022-07-29T09:49:56;35.28;45.79
65040;HTU21D;51606;45.000;38.612;2022-07-29T09:52:26;35.09;46.00
65040;HTU21D;51606;45.000;38.612;2022-07-29T09:55:04;34.96;46.14
65040;HTU21D;51606;45.000;38.612;2022-07-29T09:57:31;35.06;45.97
65040;HTU21D;51606;45.000;38.612;2022-07-29T10:00:03;35.29;45.61
65040;HTU21D;51606;45.000;38.612;2022-07-29T10:02:39;35.40;45.39
65040;HTU21D;51606;45.000;38.612;2022-07-29T10:05:17;35.38;45.41
65040;HTU21D;51606;45.000;38.612;2022-07-29T10:07:45;35.39;45.38
65040;HTU21D;51606;45.000;38.612;2022-07-29T10:10:19;35.48;45.31
65040;HTU21D;51606;45.000;38.612;2022-07-29T10:12:55;35.37;45.33
65040;HTU21D;51606;45.000;38.612;2022-07-29T10:15:24;34.90;45.90
65040;HTU21D;51606;45.000;38.612;2022-07-29T10:17:52;34.71;46.10
65040;HTU21D;51606;45.000;38.612;2022-07-29T10:20:20;34.52;46.22
65040;HTU21D;51606;45.000;38.612;2022-07-29T10:22:48;34.57;46.06
65040;HTU21D;51606;45.000;38.612;2022-07-29T10:25:15;34.51;45.99
65040;HTU21D;51606;45.000;38.612;2022-07-29T10:27:43;34.44;46.04
65040;HTU21D;51606;45.000;38.612;2022-07-29T10:30:10;34.36;46.02
65040;HTU21D;51606;45.000;38.612;2022-07-29T10:38:42;34.44;45.70
65040;HTU21D;51606;45.000;38.612;2022-07-29T10:41:37;34.56;45.58
65040;HTU21D;51606;45.000;38.612;2022-07-29T10:44:14;34.66;45.46
65040;HTU21D;51606;45.000;38.612;2022-07-29T10:46:41;34.75;45.35
65040;HTU21D;51606;45.000;38.612;2022-07-29T10:49:19;34.66;45.43
65040;HTU21D;51606;45.000;38.612;2022-07-29T10:52:07;34.45;45.64
65040;HTU21D;51606;45.000;38.612;2022-07-29T10:57:20;34.18;45.95
65040;HTU21D;51606;45.000;38.612;2022-07-29T11:07:32;34.40;45.51
65040;HTU21D;51606;45.000;38.612;2022-07-29T11:15:15;34.54;45.29
65040;HTU21D;51606;45.000;38.612;2022-07-29T11:20:44;34.70;45.12
65040;HTU21D;51606;45.000;38.612;2022-07-29T11:23:34;34.70;45.18
65040;HTU21D;51606;45.000;38.612;2022-07-29T11:29:19;34.68;45.28
65040;HTU21D;51606;45.000;38.612;2022-07-29T11:31:50;34.63;45.27
65040;HTU21D;51606;45.000;38.612;2022-07-29T11:34:22;34.46;45.47
65040;HTU21D;51606;45.000;38.612;2022-07-29T11:44:57;34.41;45.38
65040;HTU21D;51606;45.000;38.612;2022-07-29T11:47:25;34.41;45.41
65040;HTU21D;51606;45.000;38.612;2022-07-29T11:49:52;34.45;45.32
65040;HTU21D;51606;45.000;38.612;2022-07-29T11:52:19;34.52;45.17
65040;HTU21D;51606;45.000;38.612;2022-07-29T11:54:50;34.48;45.21
65040;HTU21D;51606;45.000;38.612;2022-07-29T11:57:20;34.50;45.22
65040;HTU21D;51606;45.000;38.612;2022-07-29T11:59:47;34.41;45.28
65040;HTU21D;51606;45.000;38.612;2022-07-29T12:02:14;34.51;45.21
65040;HTU21D;51606;45.000;38.612;2022-07-29T12:04:55;34.57;45.06
65040;HTU21D;51606;45.000;38.612;2022-07-29T12:07:32;34.57;45.07
65040;HTU21D;51606;45.000;38.612;2022-07-29T12:10:00;34.40;45.29
65040;HTU21D;51606;45.000;38.612;2022-07-29T12:12:27;34.27;45.44
65040;HTU21D;51606;45.000;38.612;2022-07-29T12:14:53;34.32;45.40
65040;HTU21D;51606;45.000;38.612;2022-07-29T12:17:29;34.38;45.25
65040;HTU21D;51606;45.000;38.612;2022-07-29T12:19:58;34.37;45.28
65040;HTU21D;51606;45.000;38.612;2022-07-29T12:25:01;34.45;45.21
65040;HTU21D;51606;45.000;38.612;2022-07-29T12:27:28;34.51;45.18
65040;HTU21D;51606;45.000;38.612;2022-07-29T12:29:59;34.57;45.09
65040;HTU21D;51606;45.000;38.612;2022-07-29T12:32:36;34.65;45.02
65040;HTU21D;51606;45.000;38.612;2022-07-29T12:35:05;34.59;45.08
65040;HTU21D;51606;45.000;38.612;2022-07-29T12:37:35;34.47;45.25
65040;HTU21D;51606;45.000;38.612;2022-07-29T12:40:03;34.46;45.26
65040;HTU21D;51606;45.000;38.612;2022-07-29T12:42:31;34.40;45.28
65040;HTU21D;51606;45.000;38.612;2022-07-29T12:44:59;34.35;45.37
65040;HTU21D;51606;45.000;38.612;2022-07-29T12:47:26;34.33;45.31
65040;HTU21D;51606;45.000;38.612;2022-07-29T12:50:10;34.27;45.36
65040;HTU21D;51606;45.000;38.612;2022-07-29T12:52:38;34.25;45.38
65040;HTU21D;51606;45.000;38.612;2022-07-29T12:55:05;34.25;45.35
65040;HTU21D;51606;45.000;38.612;2022-07-29T12:57:31;34.17;45.39
65040;HTU21D;51606;45.000;38.612;2022-07-29T13:02:55;34.07;45.42
65040;HTU21D;51606;45.000;38.612;2022-07-29T13:05:22;33.97;45.51
65040;HTU21D;51606;45.000;38.612;2022-07-29T13:07:48;33.92;45.57
65040;HTU21D;51606;45.000;38.612;2022-07-29T13:10:20;33.91;45.52
65040;HTU21D;51606;45.000;38.612;2022-07-29T13:13:11;33.86;45.53
65040;HTU21D;51606;45.000;38.612;2022-07-29T13:15:44;33.81;45.53
65040;HTU21D;51606;45.000;38.612;2022-07-29T13:18:32;33.81;45.49
65040;HTU21D;51606;45.000;38.612;2022-07-29T13:21:13;33.80;45.48
65040;HTU21D;51606;45.000;38.612;2022-07-29T13:23:40;33.72;45.57
65040;HTU21D;51606;45.000;38.612;2022-07-29T13:26:10;33.67;45.54
65040;HTU21D;51606;45.000;38.612;2022-07-29T13:28:42;33.60;45.59
65040;HTU21D;51606;45.000;38.612;2022-07-29T13:31:08;33.60;45.57
65040;HTU21D;51606;45.000;38.612;2022-07-29T13:33:34;33.59;45.57
65040;HTU21D;51606;45.000;38.612;2022-07-29T13:36:00;33.57;45.54
65040;HTU21D;51606;45.000;38.612;2022-07-29T13:38:27;33.60;45.55
65040;HTU21D;51606;45.000;38.612;2022-07-29T13:40:53;33.58;45.57
65040;HTU21D;51606;45.000;38.612;2022-07-29T13:43:19;33.52;45.61
65040;HTU21D;51606;45.000;38.612;2022-07-29T13:45:46;33.46;45.69
65040;HTU21D;51606;45.000;38.612;2022-07-29T13:48:12;33.37;45.73
65040;HTU21D;51606;45.000;38.612;2022-07-29T13:50:38;33.33;45.77
65040;HTU21D;51606;45.000;38.612;2022-07-29T13:53:05;33.36;45.73
65040;HTU21D;51606;45.000;38.612;2022-07-29T13:55:31;33.37;45.68
65040;HTU21D;51606;45.000;38.612;2022-07-29T13:57:57;33.40;45.67
65040;HTU21D;51606;45.000;38.612;2022-07-29T14:00:24;33.40;45.67
65040;HTU21D;51606;45.000;38.612;2022-07-29T14:02:50;33.34;45.73
65040;HTU21D;51606;45.000;38.612;2022-07-29T14:05:16;33.31;45.75
65040;HTU21D;51606;45.000;38.612;2022-07-29T14:07:42;33.26;45.82
65040;HTU21D;51606;45.000;38.612;2022-07-29T14:10:09;33.20;45.88
65040;HTU21D;51606;45.000;38.612;2022-07-29T14:12:35;33.14;45.93
65040;HTU21D;51606;45.000;38.612;2022-07-29T14:15:02;33.06;45.98
65040;HTU21D;51606;45.000;38.612;2022-07-29T14:17:29;32.98;46.03
65040;HTU21D;51606;45.000;38.612;2022-07-29T14:19:55;32.93;46.07
65040;HTU21D;51606;45.000;38.612;2022-07-29T14:22:22;32.93;46.06
65040;HTU21D;51606;45.000;38.612;2022-07-29T14:24:48;32.91;46.06
65040;HTU21D;51606;45.000;38.612;2022-07-29T14:27:15;32.89;46.09
65040;HTU21D;51606;45.000;38.612;2022-07-29T14:29:41;32.82;46.13
65040;HTU21D;51606;45.000;38.612;2022-07-29T14:32:09;32.79;46.19
65040;HTU21D;51606;45.000;38.612;2022-07-29T14:34:36;32.73;46.25
65040;HTU21D;51606;45.000;38.612;2022-07-29T14:37:04;32.68;46.31
65040;HTU21D;51606;45.000;38.612;2022-07-29T14:39:31;32.61;46.38
65040;HTU21D;51606;45.000;38.612;2022-07-29T14:41:58;32.58;46.41
65040;HTU21D;51606;45.000;38.612;2022-07-29T14:44:25;32.55;46.44
65040;HTU21D;51606;45.000;38.612;2022-07-29T14:46:59;32.49;46.46
65040;HTU21D;51606;45.000;38.612;2022-07-29T14:49:27;32.42;46.50
65040;HTU21D;51606;45.000;38.612;2022-07-29T14:51:53;32.37;46.56
65040;HTU21D;51606;45.000;38.612;2022-07-29T14:54:38;32.31;46.59
65040;HTU21D;51606;45.000;38.612;2022-07-29T14:57:05;32.28;46.60
65040;HTU21D;51606;45.000;38.612;2022-07-29T14:59:31;32.24;46.63
65040;HTU21D;51606;45.000;38.612;2022-07-29T15:01:58;32.20;46.67
65040;HTU21D;51606;45.000;38.612;2022-07-29T15:04:24;32.13;46.76
65040;HTU21D;51606;45.000;38.612;2022-07-29T15:06:51;32.08;46.84
65040;HTU21D;51606;45.000;38.612;2022-07-29T15:09:17;32.02;46.87
65040;HTU21D;51606;45.000;38.612;2022-07-29T15:12:06;31.96;46.95
65040;HTU21D;51606;45.000;38.612;2022-07-29T15:14:35;31.90;47.02
65040;HTU21D;51606;45.000;38.612;2022-07-29T15:17:02;31.87;47.09
65040;HTU21D;51606;45.000;38.612;2022-07-29T15:19:28;31.80;47.18
65040;HTU21D;51606;45.000;38.612;2022-07-29T15:21:55;31.74;47.23
65040;HTU21D;51606;45.000;38.612;2022-07-29T15:24:21;31.68;47.32
65040;HTU21D;51606;45.000;38.612;2022-07-29T15:26:48;31.61;47.43
65040;HTU21D;51606;45.000;38.612;2022-07-29T15:29:14;31.50;47.60
65040;HTU21D;51606;45.000;38.612;2022-07-29T15:31:42;31.36;47.75
65040;HTU21D;51606;45.000;38.612;2022-07-29T15:34:09;31.26;47.92
65040;HTU21D;51606;45.000;38.612;2022-07-29T15:36:35;31.14;48.08
65040;HTU21D;51606;45.000;38.612;2022-07-29T15:39:04;31.04;48.24
65040;HTU21D;51606;45.000;38.612;2022-07-29T15:41:30;30.92;48.37
65040;HTU21D;51606;45.000;38.612;2022-07-29T15:43:57;30.80;48.56
65040;HTU21D;51606;45.000;38.612;2022-07-29T15:46:23;30.68;48.72
65040;HTU21D;51606;45.000;38.612;2022-07-29T15:49:09;30.54;48.89
65040;HTU21D;51606;45.000;38.612;2022-07-29T15:51:35;30.46;49.02
65040;HTU21D;51606;45.000;38.612;2022-07-29T15:54:03;30.34;49.18
65040;HTU21D;51606;45.000;38.612;2022-07-29T15:56:30;30.23;49.36
65040;HTU21D;51606;45.000;38.612;2022-07-29T15:58:57;30.12;49.50
65040;HTU21D;51606;45.000;38.612;2022-07-29T16:01:23;30.01;49.65
65040;HTU21D;51606;45.000;38.612;2022-07-29T16:04:01;29.89;49.82
65040;HTU21D;51606;45.000;38.612;2022-07-29T16:06:28;29.78;49.98
65040;HTU21D;51606;45.000;38.612;2022-07-29T16:08:54;29.68;50.13
65040;HTU21D;51606;45.000;38.612;2022-07-29T16:11:20;29.59;50.27
65040;HTU21D;51606;45.000;38.612;2022-07-29T16:13:47;29.47;50.43
65040;HTU21D;51606;45.000;38.612;2022-07-29T16:16:13;29.37;50.58
65040;HTU21D;51606;45.000;38.612;2022-07-29T16:18:40;29.30;50.70
65040;HTU21D;51606;45.000;38.612;2022-07-29T16:21:06;29.22;50.83
65040;HTU21D;51606;45.000;38.612;2022-07-29T16:23:33;29.14;50.94
65040;HTU21D;51606;45.000;38.612;2022-07-29T16:25:59;29.06;51.07
65040;HTU21D;51606;45.000;38.612;2022-07-29T16:28:26;28.98;51.21
65040;HTU21D;51606;45.000;38.612;2022-07-29T16:30:53;28.85;51.40
65040;HTU21D;51606;45.000;38.612;2022-07-29T16:33:19;28.72;51.59
65040;HTU21D;51606;45.000;38.612;2022-07-29T16:35:46;28.61;51.72
65040;HTU21D;51606;45.000;38.612;2022-07-29T16:38:12;28.52;51.83
65040;HTU21D;51606;45.000;38.612;2022-07-29T16:40:38;28.44;51.92
65040;HTU21D;51606;45.000;38.612;2022-07-29T16:43:05;28.35;52.01
65040;HTU21D;51606;45.000;38.612;2022-07-29T16:45:31;28.30;52.07
65040;HTU21D;51606;45.000;38.612;2022-07-29T16:47:58;28.23;52.13
65040;HTU21D;51606;45.000;38.612;2022-07-29T16:50:28;28.20;52.19
65040;HTU21D;51606;45.000;38.612;2022-07-29T16:52:55;28.15;52.17
65040;HTU21D;51606;45.000;38.612;2022-07-29T16:55:27;28.12;52.20
65040;HTU21D;51606;45.000;38.612;2022-07-29T16:57:53;28.08;52.27
65040;HTU21D;51606;45.000;38.612;2022-07-29T17:00:20;28.03;52.33
65040;HTU21D;51606;45.000;38.612;2022-07-29T17:02:47;27.97;52.37
65040;HTU21D;51606;45.000;38.612;2022-07-29T17:05:14;27.93;52.44
65040;HTU21D;51606;45.000;38.612;2022-07-29T17:07:41;27.84;52.60
65040;HTU21D;51606;45.000;38.612;2022-07-29T17:10:08;27.73;52.77
65040;HTU21D;51606;45.000;38.612;2022-07-29T17:12:53;27.59;53.01
65040;HTU21D;51606;45.000;38.612;2022-07-29T17:15:20;27.42;53.27
65040;HTU21D;51606;45.000;38.612;2022-07-29T17:17:46;27.35;53.38
65040;HTU21D;51606;45.000;38.612;2022-07-29T17:20:13;27.28;53.43
65040;HTU21D;51606;45.000;38.612;2022-07-29T17:22:40;27.22;53.52
65040;HTU21D;51606;45.000;38.612;2022-07-29T17:25:07;27.14;53.63
65040;HTU21D;51606;45.000;38.612;2022-07-29T17:27:34;27.10;53.71
65040;HTU21D;51606;45.000;38.612;2022-07-29T17:30:17;27.04;53.76
65040;HTU21D;51606;45.000;38.612;2022-07-29T17:32:43;26.99;53.81
65040;HTU21D;51606;45.000;38.612;2022-07-29T17:35:27;26.96;53.81
65040;HTU21D;51606;45.000;38.612;2022-07-29T17:38:13;26.92;53.86
65040;HTU21D;51606;45.000;38.612;2022-07-29T17:40:39;26.87;53.94
65040;HTU21D;51606;45.000;38.612;2022-07-29T17:43:05;26.82;54.01
65040;HTU21D;51606;45.000;38.612;2022-07-29T17:45:34;26.79;54.10
65040;HTU21D;51606;45.000;38.612;2022-07-29T17:48:00;26.75;54.17
65040;HTU21D;51606;45.000;38.612;2022-07-29T17:50:26;26.70;54.23
65040;HTU21D;51606;45.000;38.612;2022-07-29T17:52:52;26.67;54.27
65040;HTU21D;51606;45.000;38.612;2022-07-29T17:55:19;26.65;54.32
65040;HTU21D;51606;45.000;38.612;2022-07-29T17:57:45;26.62;54.36
65040;HTU21D;51606;45.000;38.612;2022-07-29T18:00:12;26.58;54.43
65040;HTU21D;51606;45.000;38.612;2022-07-29T18:02:38;26.53;54.49
65040;HTU21D;51606;45.000;38.612;2022-07-29T18:05:04;26.50;54.55
65040;HTU21D;51606;45.000;38.612;2022-07-29T18:07:31;26.48;54.59
65040;HTU21D;51606;45.000;38.612;2022-07-29T18:09:57;26.42;54.68
65040;HTU21D;51606;45.000;38.612;2022-07-29T18:12:24;26.36;54.78
65040;HTU21D;51606;45.000;38.612;2022-07-29T18:14:50;26.31;54.89
65040;HTU21D;51606;45.000;38.612;2022-07-29T18:17:17;26.27;54.97
65040;HTU21D;51606;45.000;38.612;2022-07-29T18:19:43;26.22;55.04
65040;HTU21D;51606;45.000;38.612;2022-07-29T18:22:10;26.19;55.10
65040;HTU21D;51606;45.000;38.612;2022-07-29T18:24:37;26.13;55.16
65040;HTU21D;51606;45.000;38.612;2022-07-29T18:27:04;26.09;55.26
65040;HTU21D;51606;45.000;38.612;2022-07-29T18:29:30;26.05;55.33
65040;HTU21D;51606;45.000;38.612;2022-07-29T18:31:56;26.02;55.39
65040;HTU21D;51606;45.000;38.612;2022-07-29T18:34:24;25.96;55.46
65040;HTU21D;51606;45.000;38.612;2022-07-29T18:36:51;25.92;55.54
65040;HTU21D;51606;45.000;38.612;2022-07-29T18:39:18;25.87;55.64
65040;HTU21D;51606;45.000;38.612;2022-07-29T18:41:44;25.81;55.72
65040;HTU21D;51606;45.000;38.612;2022-07-29T18:44:11;25.76;55.79
65040;HTU21D;51606;45.000;38.612;2022-07-29T18:46:42;25.73;55.90
65040;HTU21D;51606;45.000;38.612;2022-07-29T18:49:08;25.64;56.00
65040;HTU21D;51606;45.000;38.612;2022-07-29T18:51:35;25.57;56.16
65040;HTU21D;51606;45.000;38.612;2022-07-29T18:54:01;25.48;56.29
65040;HTU21D;51606;45.000;38.612;2022-07-29T18:56:27;25.44;56.42
65040;HTU21D;51606;45.000;38.612;2022-07-29T18:58:55;25.38;56.52
65040;HTU21D;51606;45.000;38.612;2022-07-29T19:01:21;25.31;56.64
65040;HTU21D;51606;45.000;38.612;2022-07-29T19:03:48;25.24;56.75
65040;HTU21D;51606;45.000;38.612;2022-07-29T19:06:14;25.19;56.87
65040;HTU21D;51606;45.000;38.612;2022-07-29T19:08:41;25.14;56.99
65040;HTU21D;51606;45.000;38.612;2022-07-29T19:11:13;25.07;57.09
65040;HTU21D;51606;45.000;38.612;2022-07-29T19:13:39;25.00;57.22
65040;HTU21D;51606;45.000;38.612;2022-07-29T19:16:27;24.92;57.32
65040;HTU21D;51606;45.000;38.612;2022-07-29T19:18:53;24.85;57.46
65040;HTU21D;51606;45.000;38.612;2022-07-29T19:21:20;24.78;57.58
65040;HTU21D;51606;45.000;38.612;2022-07-29T19:23:46;24.74;57.65
65040;HTU21D;51606;45.000;38.612;2022-07-29T19:26:22;24.69;57.73
65040;HTU21D;51606;45.000;38.612;2022-07-29T19:28:48;24.64;57.80
65040;HTU21D;51606;45.000;38.612;2022-07-29T19:31:18;24.59;57.87
65040;HTU21D;51606;45.000;38.612;2022-07-29T19:33:44;24.57;57.95
65040;HTU21D;51606;45.000;38.612;2022-07-29T19:36:10;24.53;58.03
65040;HTU21D;51606;45.000;38.612;2022-07-29T19:38:37;24.49;58.07
65040;HTU21D;51606;45.000;38.612;2022-07-29T19:41:04;24.49;58.08
65040;HTU21D;51606;45.000;38.612;2022-07-29T19:43:31;24.46;58.09
65040;HTU21D;51606;45.000;38.612;2022-07-29T19:46:20;24.44;58.16
65040;HTU21D;51606;45.000;38.612;2022-07-29T19:48:47;24.40;58.23
65040;HTU21D;51606;45.000;38.612;2022-07-29T19:51:13;24.36;58.31
65040;HTU21D;51606;45.000;38.612;2022-07-29T19:53:40;24.33;58.36
65040;HTU21D;51606;45.000;38.612;2022-07-29T19:56:06;24.31;58.40
65040;HTU21D;51606;45.000;38.612;2022-07-29T19:58:32;24.28;58.47
65040;HTU21D;51606;45.000;38.612;2022-07-29T20:01:00;24.25;58.55
65040;HTU21D;51606;45.000;38.612;2022-07-29T20:03:28;24.19;58.64
65040;HTU21D;51606;45.000;38.612;2022-07-29T20:05:54;24.11;58.79
65040;HTU21D;51606;45.000;38.612;2022-07-29T20:08:20;24.04;58.90
65040;HTU21D;51606;45.000;38.612;2022-07-29T20:10:47;24.00;58.99
65040;HTU21D;51606;45.000;38.612;2022-07-29T20:13:15;23.97;59.03
65040;HTU21D;51606;45.000;38.612;2022-07-29T20:15:42;23.95;59.06
65040;HTU21D;51606;45.000;38.612;2022-07-29T20:18:09;23.92;59.06
65040;HTU21D;51606;45.000;38.612;2022-07-29T20:20:35;23.91;59.09
65040;HTU21D;51606;45.000;38.612;2022-07-29T20:23:01;23.89;59.12
65040;HTU21D;51606;45.000;38.612;2022-07-29T20:25:47;23.88;59.15
65040;HTU21D;51606;45.000;38.612;2022-07-29T20:28:13;23.87;58.93
65040;HTU21D;51606;45.000;38.612;2022-07-29T20:30:39;23.79;59.07